| time (UTC) | temp F | wind direction | speed knots | gust knots | rain 1hr in | rain 24hr in | rain mn in | humidity % | barometer mb |
| 20260507054004 | 39 | 235 | 1.7 | 2.6 | 0.00 | 0.00 | 0.00 | 71 | 1017.8 |
| 20260507053005 | 39 | 122 | 0.0 | 1.7 | 0.00 | 0.00 | 0.00 | 70 | 1018.1 |
| 20260507052004 | 38 | 197 | 0.9 | 2.6 | 0.00 | 0.00 | 0.00 | 69 | 1018.0 |
| 20260507051005 | 39 | 207 | 1.7 | 2.6 | 0.00 | 0.00 | 0.00 | 69 | 1017.9 |
| 20260507050003 | 39 | 270 | 2.6 | 4.3 | 0.00 | 0.00 | 0.00 | 68 | 1017.8 |
| 20260507045004 | 40 | 269 | 2.6 | 2.6 | 0.00 | 0.00 | 0.00 | 67 | 1017.8 |
| 20260507044004 | 40 | 267 | 2.6 | 4.3 | 0.00 | 0.00 | 0.00 | 68 | 1017.9 |
| 20260507043003 | 40 | 266 | 2.6 | 5.2 | 0.00 | 0.00 | 0.00 | 66 | 1017.9 |
| 20260507042003 | 41 | 231 | 2.6 | 4.3 | 0.00 | 0.00 | 0.00 | 63 | 1018.0 |
| 20260507041004 | 41 | 234 | 2.6 | 2.6 | 0.00 | 0.00 | 0.00 | 65 | 1018.1 |
| 20260507040004 | 41 | 261 | 2.6 | 2.6 | 0.00 | 0.00 | 0.00 | 67 | 1018.1 |
| 20260507035004 | 42 | 258 | 1.7 | 2.6 | 0.00 | 0.00 | 0.00 | 67 | 1018.2 |
| 20260507034004 | 41 | 238 | 1.7 | 2.6 | 0.00 | 0.00 | 0.00 | 65 | 1018.3 |
| 20260507033004 | 41 | 267 | 0.9 | 2.6 | 0.00 | 0.00 | 0.00 | 62 | 1018.3 |
| 20260507032004 | 42 | 254 | 0.9 | 2.6 | 0.00 | 0.00 | 0.00 | 62 | 1018.4 |
| 20260507031004 | 42 | 233 | 0.0 | 1.7 | 0.00 | 0.00 | 0.00 | 59 | 1018.5 |
| 20260507025004 | 43 | 226 | 0.9 | 2.6 | 0.00 | 0.00 | 0.00 | 61 | 1018.5 |
| 20260507024004 | 44 | 233 | 1.7 | 2.6 | 0.00 | 0.00 | 0.00 | 57 | 1018.5 |
| 20260507023004 | 44 | 251 | 1.7 | 2.6 | 0.00 | 0.00 | 0.00 | 58 | 1018.5 |
| 20260507022004 | 44 | 223 | 0.9 | 5.2 | 0.00 | 0.00 | 0.00 | 55 | 1018.5 |
| 20260507021004 | 44 | 204 | 0.0 | 1.7 | 0.00 | 0.00 | 0.00 | 53 | 1018.5 |
| 20260507020004 | 45 | 254 | 0.9 | 1.7 | 0.00 | 0.00 | 0.00 | 57 | 1018.5 |
| 20260507015004 | 46 | 206 | 0.0 | 2.6 | 0.00 | 0.00 | 0.00 | 54 | 1018.4 |
| 20260507014004 | 47 | 147 | 0.9 | 2.6 | 0.00 | 0.00 | 0.00 | 52 | 1018.4 |
| 20260507012004 | 48 | 235 | 0.9 | 1.7 | 0.00 | 0.00 | 0.00 | 50 | 1018.3 |
| 20260507010004 | 48 | 165 | 1.7 | 2.6 | 0.00 | 0.00 | 0.00 | 46 | 1018.3 |
| 20260507005004 | 49 | 167 | 1.7 | 6.1 | 0.00 | 0.00 | 0.00 | 44 | 1018.4 |
| 20260507004003 | 50 | 131 | 5.2 | 10.4 | 0.00 | 0.00 | 0.00 | 39 | 1018.4 |
| 20260507003004 | 51 | 132 | 4.3 | 8.7 | 0.00 | 0.00 | 0.00 | 38 | 1018.3 |
| 20260507002004 | 52 | 140 | 6.1 | 13.0 | 0.00 | 0.00 | 0.00 | 38 | 1018.4 |
| 20260507001004 | 52 | 128 | 10.4 | 15.6 | 0.00 | 0.00 | 0.00 | 35 | 1018.5 |
| 20260507000004 | 53 | 136 | 10.4 | 13.9 | 0.00 | 0.00 | 0.00 | 36 | 1018.5 |
| 20260506234004 | 52 | 144 | 6.1 | 11.3 | 0.00 | 0.00 | 0.00 | 40 | 1018.6 |
| 20260506233004 | 52 | 144 | 8.7 | 14.8 | 0.00 | 0.00 | 0.00 | 38 | 1018.6 |
| 20260506232004 | 52 | 145 | 7.8 | 14.8 | 0.00 | 0.00 | 0.00 | 39 | 1018.7 |
| 20260506231004 | 52 | 143 | 8.7 | 13.9 | 0.00 | 0.00 | 0.00 | 39 | 1018.7 |
| 20260506230003 | 52 | 132 | 10.4 | 13.9 | 0.00 | 0.00 | 0.00 | 38 | 1018.8 |
| 20260506225003 | 51 | 131 | 4.3 | 10.4 | 0.00 | 0.00 | 0.00 | 41 | 1018.8 |
| 20260506223004 | 51 | 149 | 8.7 | 12.2 | 0.00 | 0.00 | 0.00 | 42 | 1019.1 |
| 20260506221004 | 52 | 133 | 8.7 | 13.0 | 0.00 | 0.00 | 0.00 | 40 | 1019.2 |
| 20260506215005 | 51 | 124 | 12.2 | 17.4 | 0.00 | 0.00 | 0.00 | 40 | 1019.4 |
| 20260506214004 | 51 | 139 | 8.7 | 12.2 | 0.00 | 0.00 | 0.00 | 40 | 1019.4 |
| 20260506213004 | 51 | 118 | 12.2 | 25.2 | 0.00 | 0.00 | 0.00 | 41 | 1019.5 |
| 20260506212004 | 51 | 136 | 10.4 | 17.4 | 0.00 | 0.00 | 0.00 | 39 | 1019.7 |
| 20260506211004 | 52 | 132 | 12.2 | 17.4 | 0.00 | 0.00 | 0.00 | 40 | 1019.8 |
| 20260506210004 | 51 | 124 | 9.6 | 15.6 | 0.00 | 0.00 | 0.00 | 41 | 1019.9 |
| 20260506205004 | 52 | 95 | 12.2 | 15.6 | 0.00 | 0.00 | 0.00 | 42 | 1020.1 |
| 20260506204004 | 50 | 93 | 12.2 | 20.0 | 0.00 | 0.00 | 0.00 | 41 | 1020.2 |
| 20260506203004 | 52 | 107 | 12.2 | 18.2 | 0.00 | 0.00 | 0.00 | 41 | 1020.3 |
| 20260506202004 | 51 | 100 | 14.8 | 21.7 | 0.00 | 0.00 | 0.00 | 42 | 1020.5 |
| 20260506201004 | 51 | 124 | 10.4 | 15.6 | 0.00 | 0.00 | 0.00 | 42 | 1020.5 |
| 20260506200004 | 50 | 117 | 8.7 | 20.0 | 0.00 | 0.00 | 0.00 | 42 | 1020.6 |
| 20260506194004 | 50 | 118 | 11.3 | 17.4 | 0.00 | 0.00 | 0.00 | 44 | 1020.9 |
| 20260506193003 | 49 | 103 | 11.3 | 20.0 | 0.00 | 0.00 | 0.00 | 44 | 1021.0 |
| 20260506192004 | 49 | 105 | 8.7 | 15.6 | 0.00 | 0.00 | 0.00 | 46 | 1021.1 |
| 20260506191004 | 49 | 136 | 8.7 | 21.7 | 0.00 | 0.00 | 0.00 | 43 | 1021.0 |
| 20260506190005 | 49 | 129 | 9.6 | 18.2 | 0.00 | 0.00 | 0.00 | 46 | 1021.2 |
| 20260506185004 | 48 | 124 | 11.3 | 17.4 | 0.00 | 0.00 | 0.00 | 44 | 1021.2 |
| 20260506184004 | 47 | 127 | 8.7 | 15.6 | 0.00 | 0.00 | 0.00 | 45 | 1021.3 |
| 20260506183005 | 48 | 142 | 11.3 | 17.4 | 0.00 | 0.00 | 0.00 | 46 | 1021.4 |
| 20260506182004 | 49 | 143 | 13.9 | 22.6 | 0.00 | 0.00 | 0.00 | 46 | 1021.4 |
| 20260506181004 | 47 | 117 | 11.3 | 18.2 | 0.00 | 0.00 | 0.00 | 47 | 1021.6 |
| 20260506180005 | 47 | 114 | 12.2 | 20.9 | 0.00 | 0.00 | 0.00 | 47 | 1021.7 |
| 20260506175004 | 46 | 122 | 12.2 | 19.1 | 0.00 | 0.00 | 0.00 | 47 | 1021.8 |
| 20260506172004 | 46 | 133 | 13.0 | 17.4 | 0.00 | 0.00 | 0.00 | 47 | 1021.8 |
| 20260506171003 | 45 | 135 | 11.3 | 20.9 | 0.00 | 0.00 | 0.00 | 48 | 1021.8 |
| 20260506170004 | 45 | 136 | 12.2 | 17.4 | 0.00 | 0.00 | 0.00 | 48 | 1021.8 |
| 20260506164003 | 44 | 130 | 12.2 | 19.1 | 0.00 | 0.00 | 0.00 | 48 | 1021.9 |
| 20260506163004 | 44 | 140 | 10.4 | 20.0 | 0.00 | 0.00 | 0.00 | 50 | 1021.9 |
| 20260506162004 | 44 | 125 | 12.2 | 18.2 | 0.00 | 0.00 | 0.00 | 50 | 1021.9 |
| 20260506161004 | 44 | 134 | 10.4 | 18.2 | 0.00 | 0.00 | 0.00 | 51 | 1021.9 |
| 20260506160003 | 44 | 137 | 12.2 | 18.2 | 0.00 | 0.00 | 0.00 | 50 | 1021.9 |
| 20260506155004 | 44 | 127 | 13.0 | 19.1 | 0.00 | 0.00 | 0.00 | 50 | 1021.9 |
| 20260506154004 | 44 | 128 | 12.2 | 17.4 | 0.00 | 0.00 | 0.00 | 51 | 1021.9 |
| 20260506153004 | 44 | 107 | 11.3 | 15.6 | 0.00 | 0.00 | 0.00 | 51 | 1021.9 |
| 20260506152004 | 44 | 116 | 10.4 | 13.9 | 0.00 | 0.00 | 0.00 | 51 | 1022.0 |
| 20260506151004 | 43 | 146 | 10.4 | 15.6 | 0.00 | 0.00 | 0.00 | 52 | 1022.0 |
| 20260506150004 | 43 | 127 | 11.3 | 15.6 | 0.00 | 0.00 | 0.00 | 52 | 1021.9 |
| 20260506145004 | 43 | 127 | 11.3 | 17.4 | 0.00 | 0.00 | 0.00 | 52 | 1022.0 |
| 20260506144003 | 43 | 123 | 8.7 | 13.9 | 0.00 | 0.00 | 0.00 | 54 | 1021.9 |
| 20260506143004 | 42 | 129 | 10.4 | 15.6 | 0.00 | 0.00 | 0.00 | 52 | 1021.8 |
| 20260506142004 | 43 | 132 | 11.3 | 17.4 | 0.00 | 0.00 | 0.00 | 54 | 1021.8 |
| 20260506140004 | 42 | 146 | 6.1 | 10.4 | 0.00 | 0.00 | 0.00 | 60 | 1021.8 |
| 20260506135003 | 42 | 143 | 6.1 | 10.4 | 0.00 | 0.00 | 0.00 | 62 | 1021.7 |
| 20260506134004 | 41 | 125 | 5.2 | 7.8 | 0.00 | 0.00 | 0.00 | 65 | 1021.7 |
| 20260506133004 | 40 | 123 | 4.3 | 7.8 | 0.00 | 0.00 | 0.00 | 65 | 1021.7 |
| 20260506131004 | 39 | 126 | 4.3 | 7.8 | 0.00 | 0.00 | 0.00 | 69 | 1021.7 |
| 20260506130005 | 39 | 100 | 3.5 | 7.8 | 0.00 | 0.00 | 0.00 | 70 | 1021.7 |
| 20260506125004 | 38 | 100 | 4.3 | 5.2 | 0.00 | 0.00 | 0.00 | 73 | 1021.6 |
| 20260506124004 | 37 | 119 | 2.6 | 5.2 | 0.00 | 0.00 | 0.00 | 75 | 1021.5 |
| 20260506123004 | 37 | 104 | 3.5 | 4.3 | 0.00 | 0.00 | 0.00 | 78 | 1021.4 |
| 20260506121004 | 35 | 81 | 0.9 | 2.6 | 0.00 | 0.00 | 0.00 | 80 | 1020.9 |
| 20260506115004 | 35 | 99 | 1.7 | 2.6 | 0.00 | 0.00 | 0.00 | 80 | 1020.8 |
| 20260506114004 | 34 | 123 | 2.6 | 4.3 | 0.00 | 0.00 | 0.00 | 80 | 1020.8 |
| 20260506113003 | 34 | 130 | 2.6 | 2.6 | 0.00 | 0.00 | 0.00 | 80 | 1020.6 |
| 20260506112004 | 34 | 127 | 2.6 | 2.6 | 0.00 | 0.00 | 0.00 | 81 | 1020.5 |
| 20260506110004 | 33 | 83 | 2.6 | 2.6 | 0.00 | 0.00 | 0.00 | 81 | 1020.4 |
| 20260506105003 | 33 | 106 | 1.7 | 2.6 | 0.00 | 0.00 | 0.00 | 82 | 1020.2 |
| 20260506104004 | 33 | 116 | 2.6 | 4.3 | 0.00 | 0.00 | 0.00 | 82 | 1020.3 |
| 20260506102004 | 32 | 103 | 1.7 | 2.6 | 0.00 | 0.00 | 0.00 | 86 | 1020.2 |
| 20260506100004 | 29 | 244 | 0.9 | 1.7 | 0.00 | 0.00 | 0.00 | 88 | 1019.9 |
| 20260506094004 | 27 | 106 | 0.0 | 0.9 | 0.00 | 0.00 | 0.00 | 87 | 1019.9 |
| 20260506093004 | 27 | 93 | 0.9 | 1.7 | 0.00 | 0.00 | 0.00 | 85 | 1019.9 |
| 20260506091003 | 28 | 75 | 0.9 | 1.7 | 0.00 | 0.00 | 0.00 | 83 | 1019.7 |
| 20260506084004 | 29 | 250 | 1.7 | 2.6 | 0.00 | 0.00 | 0.00 | 85 | 1018.9 |
| 20260506083004 | 28 | 269 | 0.9 | 1.7 | 0.00 | 0.00 | 0.00 | 83 | 1019.4 |
| 20260506082003 | 29 | 281 | 0.9 | 1.7 | 0.00 | 0.00 | 0.00 | 81 | 1019.6 |
| 20260506081003 | 29 | 73 | 0.9 | 1.7 | 0.00 | 0.00 | 0.00 | 81 | 1019.5 |
| 20260506073004 | 30 | 144 | 0.9 | 1.7 | 0.00 | 0.00 | 0.00 | 79 | 1019.1 |
| 20260506072004 | 30 | 199 | 0.0 | 1.7 | 0.00 | 0.00 | 0.00 | 79 | 1019.2 |
| 20260506071003 | 31 | 85 | 1.7 | 2.6 | 0.00 | 0.00 | 0.00 | 79 | 1019.4 |
| 20260506062003 | 33 | 110 | 0.9 | 1.7 | 0.00 | 0.00 | 0.00 | 74 | 1019.2 |
| 20260506061003 | 34 | 137 | 1.7 | 2.6 | 0.00 | 0.00 | 0.00 | 73 | 1019.1 |